sensor_id;sensor_type;location;lat;lon;timestamp;temperature;humidity
55213;DHT22;41083;52.932;6.674;2022-07-06T00:00:43;14.20;99.90
55213;DHT22;41083;52.932;6.674;2022-07-06T00:03:08;14.20;99.90
55213;DHT22;41083;52.932;6.674;2022-07-06T00:05:34;14.20;99.90
55213;DHT22;41083;52.932;6.674;2022-07-06T00:07:59;14.20;99.90
55213;DHT22;41083;52.932;6.674;2022-07-06T00:10:25;14.30;99.90
55213;DHT22;41083;52.932;6.674;2022-07-06T00:12:51;14.30;99.90
55213;DHT22;41083;52.932;6.674;2022-07-06T00:15:16;14.20;99.90
55213;DHT22;41083;52.932;6.674;2022-07-06T00:17:42;14.30;99.90
55213;DHT22;41083;52.932;6.674;2022-07-06T00:20:08;14.30;99.90
55213;DHT22;41083;52.932;6.674;2022-07-06T00:22:34;14.30;99.90
55213;DHT22;41083;52.932;6.674;2022-07-06T00:24:59;14.30;99.90
55213;DHT22;41083;52.932;6.674;2022-07-06T00:27:25;14.30;99.90
55213;DHT22;41083;52.932;6.674;2022-07-06T00:29:50;14.20;99.90
55213;DHT22;41083;52.932;6.674;2022-07-06T00:32:16;14.20;99.90
55213;DHT22;41083;52.932;6.674;2022-07-06T00:34:41;14.20;99.90
55213;DHT22;41083;52.932;6.674;2022-07-06T00:37:07;14.20;99.90
55213;DHT22;41083;52.932;6.674;2022-07-06T00:39:33;14.20;99.90
55213;DHT22;41083;52.932;6.674;2022-07-06T00:41:59;14.20;99.90
55213;DHT22;41083;52.932;6.674;2022-07-06T00:44:25;14.10;99.90
55213;DHT22;41083;52.932;6.674;2022-07-06T00:46:50;14.10;99.90
55213;DHT22;41083;52.932;6.674;2022-07-06T00:49:16;14.10;99.90
55213;DHT22;41083;52.932;6.674;2022-07-06T00:52:01;14.10;99.90
55213;DHT22;41083;52.932;6.674;2022-07-06T00:54:30;14.10;99.90
55213;DHT22;41083;52.932;6.674;2022-07-06T00:56:56;14.00;99.90
55213;DHT22;41083;52.932;6.674;2022-07-06T00:59:24;14.10;99.90
55213;DHT22;41083;52.932;6.674;2022-07-06T01:01:50;14.00;99.90
55213;DHT22;41083;52.932;6.674;2022-07-06T01:04:16;14.00;99.90
55213;DHT22;41083;52.932;6.674;2022-07-06T01:06:42;14.00;99.90
55213;DHT22;41083;52.932;6.674;2022-07-06T01:09:08;14.00;99.90
55213;DHT22;41083;52.932;6.674;2022-07-06T01:11:34;14.00;99.90
55213;DHT22;41083;52.932;6.674;2022-07-06T01:14:00;14.00;99.90
55213;DHT22;41083;52.932;6.674;2022-07-06T01:16:26;14.00;99.90
55213;DHT22;41083;52.932;6.674;2022-07-06T01:18:51;14.00;99.90
55213;DHT22;41083;52.932;6.674;2022-07-06T01:21:17;14.00;99.90
55213;DHT22;41083;52.932;6.674;2022-07-06T01:23:44;14.00;99.90
55213;DHT22;41083;52.932;6.674;2022-07-06T01:26:18;14.00;99.90
55213;DHT22;41083;52.932;6.674;2022-07-06T01:28:45;14.00;99.90
55213;DHT22;41083;52.932;6.674;2022-07-06T01:31:29;14.00;99.90
55213;DHT22;41083;52.932;6.674;2022-07-06T01:33:55;14.00;99.90
55213;DHT22;41083;52.932;6.674;2022-07-06T01:36:21;14.00;99.90
55213;DHT22;41083;52.932;6.674;2022-07-06T01:38:52;14.00;99.90
55213;DHT22;41083;52.932;6.674;2022-07-06T01:41:19;14.00;99.90
55213;DHT22;41083;52.932;6.674;2022-07-06T01:43:45;14.00;99.90
55213;DHT22;41083;52.932;6.674;2022-07-06T01:46:11;14.00;99.90
55213;DHT22;41083;52.932;6.674;2022-07-06T01:48:37;14.00;99.90
55213;DHT22;41083;52.932;6.674;2022-07-06T01:51:04;14.00;99.90
55213;DHT22;41083;52.932;6.674;2022-07-06T01:53:30;14.00;99.90
55213;DHT22;41083;52.932;6.674;2022-07-06T01:55:55;14.00;99.90
55213;DHT22;41083;52.932;6.674;2022-07-06T01:58:21;14.00;99.90
55213;DHT22;41083;52.932;6.674;2022-07-06T02:00:47;13.90;99.90
55213;DHT22;41083;52.932;6.674;2022-07-06T02:03:13;13.90;99.90
55213;DHT22;41083;52.932;6.674;2022-07-06T02:05:38;13.80;99.90
55213;DHT22;41083;52.932;6.674;2022-07-06T02:08:04;13.90;99.90
55213;DHT22;41083;52.932;6.674;2022-07-06T02:10:29;13.90;99.90
55213;DHT22;41083;52.932;6.674;2022-07-06T02:12:55;13.90;99.90
55213;DHT22;41083;52.932;6.674;2022-07-06T02:15:21;13.90;99.90
55213;DHT22;41083;52.932;6.674;2022-07-06T02:17:46;13.90;99.90
55213;DHT22;41083;52.932;6.674;2022-07-06T02:20:12;13.90;99.90
55213;DHT22;41083;52.932;6.674;2022-07-06T02:22:37;13.90;99.90
55213;DHT22;41083;52.932;6.674;2022-07-06T02:25:03;13.90;99.90
55213;DHT22;41083;52.932;6.674;2022-07-06T02:27:29;13.90;99.90
55213;DHT22;41083;52.932;6.674;2022-07-06T02:29:55;13.90;99.90
55213;DHT22;41083;52.932;6.674;2022-07-06T02:32:20;13.90;99.90
55213;DHT22;41083;52.932;6.674;2022-07-06T02:34:46;14.00;99.90
55213;DHT22;41083;52.932;6.674;2022-07-06T02:37:11;13.90;99.90
55213;DHT22;41083;52.932;6.674;2022-07-06T02:39:37;13.90;99.90
55213;DHT22;41083;52.932;6.674;2022-07-06T02:42:03;14.00;99.90
55213;DHT22;41083;52.932;6.674;2022-07-06T02:44:29;14.00;99.90
55213;DHT22;41083;52.932;6.674;2022-07-06T02:46:54;14.00;99.90
55213;DHT22;41083;52.932;6.674;2022-07-06T02:49:20;14.00;99.90
55213;DHT22;41083;52.932;6.674;2022-07-06T02:51:45;14.00;99.90
55213;DHT22;41083;52.932;6.674;2022-07-06T02:54:11;14.00;99.90
55213;DHT22;41083;52.932;6.674;2022-07-06T02:56:37;14.00;99.90
55213;DHT22;41083;52.932;6.674;2022-07-06T02:59:02;14.00;99.90
55213;DHT22;41083;52.932;6.674;2022-07-06T03:01:28;13.90;99.90
55213;DHT22;41083;52.932;6.674;2022-07-06T03:03:54;13.90;99.90
55213;DHT22;41083;52.932;6.674;2022-07-06T03:06:19;14.00;99.90
55213;DHT22;41083;52.932;6.674;2022-07-06T03:08:45;14.00;99.90
55213;DHT22;41083;52.932;6.674;2022-07-06T03:11:10;14.00;99.90
55213;DHT22;41083;52.932;6.674;2022-07-06T03:13:36;14.00;99.90
55213;DHT22;41083;52.932;6.674;2022-07-06T03:16:02;14.00;99.90
55213;DHT22;41083;52.932;6.674;2022-07-06T03:18:27;14.00;99.90
55213;DHT22;41083;52.932;6.674;2022-07-06T03:20:53;14.00;99.90
55213;DHT22;41083;52.932;6.674;2022-07-06T03:23:19;14.00;99.90
55213;DHT22;41083;52.932;6.674;2022-07-06T03:25:45;14.00;99.90
55213;DHT22;41083;52.932;6.674;2022-07-06T03:28:10;14.00;99.90
55213;DHT22;41083;52.932;6.674;2022-07-06T03:30:36;14.00;99.90
55213;DHT22;41083;52.932;6.674;2022-07-06T03:33:02;14.00;99.90
55213;DHT22;41083;52.932;6.674;2022-07-06T03:35:27;14.00;99.90
55213;DHT22;41083;52.932;6.674;2022-07-06T03:37:53;14.00;99.90
55213;DHT22;41083;52.932;6.674;2022-07-06T03:40:19;14.00;99.90
55213;DHT22;41083;52.932;6.674;2022-07-06T03:42:44;14.00;99.90
55213;DHT22;41083;52.932;6.674;2022-07-06T03:45:10;14.00;99.90
55213;DHT22;41083;52.932;6.674;2022-07-06T03:47:36;14.00;99.90
55213;DHT22;41083;52.932;6.674;2022-07-06T03:50:01;14.10;99.90
55213;DHT22;41083;52.932;6.674;2022-07-06T03:52:27;14.00;99.90
55213;DHT22;41083;52.932;6.674;2022-07-06T03:54:52;14.00;99.90
55213;DHT22;41083;52.932;6.674;2022-07-06T03:57:18;14.00;99.90
55213;DHT22;41083;52.932;6.674;2022-07-06T03:59:44;14.00;99.90
55213;DHT22;41083;52.932;6.674;2022-07-06T04:02:09;14.00;99.90
55213;DHT22;41083;52.932;6.674;2022-07-06T04:04:35;14.00;99.90
55213;DHT22;41083;52.932;6.674;2022-07-06T04:07:00;14.00;99.90
55213;DHT22;41083;52.932;6.674;2022-07-06T04:09:26;14.00;99.90
55213;DHT22;41083;52.932;6.674;2022-07-06T04:11:52;14.00;99.90
55213;DHT22;41083;52.932;6.674;2022-07-06T04:14:17;14.00;99.90
55213;DHT22;41083;52.932;6.674;2022-07-06T04:16:43;13.90;99.90
55213;DHT22;41083;52.932;6.674;2022-07-06T04:19:09;14.00;99.90
55213;DHT22;41083;52.932;6.674;2022-07-06T04:21:34;14.00;99.90
55213;DHT22;41083;52.932;6.674;2022-07-06T04:24:00;14.10;99.90
55213;DHT22;41083;52.932;6.674;2022-07-06T04:26:26;14.10;99.90
55213;DHT22;41083;52.932;6.674;2022-07-06T04:28:51;14.20;99.90
55213;DHT22;41083;52.932;6.674;2022-07-06T04:31:17;14.20;99.90
55213;DHT22;41083;52.932;6.674;2022-07-06T04:33:43;14.20;99.90
55213;DHT22;41083;52.932;6.674;2022-07-06T04:36:11;14.20;99.90
55213;DHT22;41083;52.932;6.674;2022-07-06T04:38:37;14.20;99.90
55213;DHT22;41083;52.932;6.674;2022-07-06T04:41:03;14.20;99.90
55213;DHT22;41083;52.932;6.674;2022-07-06T04:43:29;14.20;99.90
55213;DHT22;41083;52.932;6.674;2022-07-06T04:45:54;14.30;99.90
55213;DHT22;41083;52.932;6.674;2022-07-06T04:48:20;14.30;99.90
55213;DHT22;41083;52.932;6.674;2022-07-06T04:50:46;14.30;99.90
55213;DHT22;41083;52.932;6.674;2022-07-06T04:53:12;14.30;99.90
55213;DHT22;41083;52.932;6.674;2022-07-06T04:55:37;14.30;99.90
55213;DHT22;41083;52.932;6.674;2022-07-06T04:58:03;14.40;99.90
55213;DHT22;41083;52.932;6.674;2022-07-06T05:00:29;14.30;99.90
55213;DHT22;41083;52.932;6.674;2022-07-06T05:02:54;14.30;99.90
55213;DHT22;41083;52.932;6.674;2022-07-06T05:05:20;14.40;99.90
55213;DHT22;41083;52.932;6.674;2022-07-06T05:07:46;14.40;99.90
55213;DHT22;41083;52.932;6.674;2022-07-06T05:10:12;14.40;99.90
55213;DHT22;41083;52.932;6.674;2022-07-06T05:12:37;14.40;99.90
55213;DHT22;41083;52.932;6.674;2022-07-06T05:15:04;14.40;99.90
55213;DHT22;41083;52.932;6.674;2022-07-06T05:17:29;14.40;99.90
55213;DHT22;41083;52.932;6.674;2022-07-06T05:19:55;14.40;99.90
55213;DHT22;41083;52.932;6.674;2022-07-06T05:22:21;14.40;99.90
55213;DHT22;41083;52.932;6.674;2022-07-06T05:24:46;14.50;99.90
55213;DHT22;41083;52.932;6.674;2022-07-06T05:27:12;14.50;99.90
55213;DHT22;41083;52.932;6.674;2022-07-06T05:29:38;14.50;99.90
55213;DHT22;41083;52.932;6.674;2022-07-06T05:32:03;14.50;99.90
55213;DHT22;41083;52.932;6.674;2022-07-06T05:34:29;14.60;99.90
55213;DHT22;41083;52.932;6.674;2022-07-06T05:36:55;14.60;99.90
55213;DHT22;41083;52.932;6.674;2022-07-06T05:39:20;14.60;99.90
55213;DHT22;41083;52.932;6.674;2022-07-06T05:41:46;14.60;99.90
55213;DHT22;41083;52.932;6.674;2022-07-06T05:44:12;14.60;99.90
55213;DHT22;41083;52.932;6.674;2022-07-06T05:46:38;14.60;99.90
55213;DHT22;41083;52.932;6.674;2022-07-06T05:49:03;14.70;99.90
55213;DHT22;41083;52.932;6.674;2022-07-06T05:51:48;14.70;99.90
55213;DHT22;41083;52.932;6.674;2022-07-06T05:54:15;14.70;99.90
55213;DHT22;41083;52.932;6.674;2022-07-06T05:56:40;14.80;99.90
55213;DHT22;41083;52.932;6.674;2022-07-06T05:59:06;14.90;99.90
55213;DHT22;41083;52.932;6.674;2022-07-06T06:01:31;14.80;99.90
55213;DHT22;41083;52.932;6.674;2022-07-06T06:03:57;14.90;99.90
55213;DHT22;41083;52.932;6.674;2022-07-06T06:06:25;14.90;99.90
55213;DHT22;41083;52.932;6.674;2022-07-06T06:08:50;14.90;99.90
55213;DHT22;41083;52.932;6.674;2022-07-06T06:11:16;14.90;99.90
55213;DHT22;41083;52.932;6.674;2022-07-06T06:13:42;14.90;99.90
55213;DHT22;41083;52.932;6.674;2022-07-06T06:16:07;14.90;99.90
55213;DHT22;41083;52.932;6.674;2022-07-06T06:18:33;14.90;99.90
55213;DHT22;41083;52.932;6.674;2022-07-06T06:20:59;14.90;99.90
55213;DHT22;41083;52.932;6.674;2022-07-06T06:23:24;14.90;99.90
55213;DHT22;41083;52.932;6.674;2022-07-06T06:25:50;14.90;99.90
55213;DHT22;41083;52.932;6.674;2022-07-06T06:28:16;14.80;99.90
55213;DHT22;41083;52.932;6.674;2022-07-06T06:30:41;14.80;99.90
55213;DHT22;41083;52.932;6.674;2022-07-06T06:33:14;14.80;99.90
55213;DHT22;41083;52.932;6.674;2022-07-06T06:35:43;14.80;99.90
55213;DHT22;41083;52.932;6.674;2022-07-06T06:38:09;14.70;99.90
55213;DHT22;41083;52.932;6.674;2022-07-06T06:40:35;14.80;99.90
55213;DHT22;41083;52.932;6.674;2022-07-06T06:43:00;14.80;99.90
55213;DHT22;41083;52.932;6.674;2022-07-06T06:45:26;14.90;99.90
55213;DHT22;41083;52.932;6.674;2022-07-06T06:47:52;15.10;99.90
55213;DHT22;41083;52.932;6.674;2022-07-06T06:50:17;15.20;99.90
55213;DHT22;41083;52.932;6.674;2022-07-06T06:52:43;15.30;99.90
55213;DHT22;41083;52.932;6.674;2022-07-06T06:55:09;15.30;99.90
55213;DHT22;41083;52.932;6.674;2022-07-06T06:57:35;15.50;99.90
55213;DHT22;41083;52.932;6.674;2022-07-06T07:00:01;15.50;99.90
55213;DHT22;41083;52.932;6.674;2022-07-06T07:02:26;15.60;99.90
55213;DHT22;41083;52.932;6.674;2022-07-06T07:04:52;15.70;99.90
55213;DHT22;41083;52.932;6.674;2022-07-06T07:07:18;15.70;99.90
55213;DHT22;41083;52.932;6.674;2022-07-06T07:09:43;15.80;99.90
55213;DHT22;41083;52.932;6.674;2022-07-06T07:12:09;15.80;99.90
55213;DHT22;41083;52.932;6.674;2022-07-06T07:14:36;15.80;99.90
55213;DHT22;41083;52.932;6.674;2022-07-06T07:17:01;15.80;99.90
55213;DHT22;41083;52.932;6.674;2022-07-06T07:19:27;15.70;99.90
55213;DHT22;41083;52.932;6.674;2022-07-06T07:21:52;15.60;99.90
55213;DHT22;41083;52.932;6.674;2022-07-06T07:24:18;15.50;99.90
55213;DHT22;41083;52.932;6.674;2022-07-06T07:26:44;15.60;99.90
55213;DHT22;41083;52.932;6.674;2022-07-06T07:29:09;15.60;99.90
55213;DHT22;41083;52.932;6.674;2022-07-06T07:31:35;15.60;99.90
55213;DHT22;41083;52.932;6.674;2022-07-06T07:34:00;15.70;99.90
55213;DHT22;41083;52.932;6.674;2022-07-06T07:36:26;15.70;99.90
55213;DHT22;41083;52.932;6.674;2022-07-06T07:38:52;15.80;99.90
55213;DHT22;41083;52.932;6.674;2022-07-06T07:41:17;15.90;99.90
55213;DHT22;41083;52.932;6.674;2022-07-06T07:43:43;16.00;99.90
55213;DHT22;41083;52.932;6.674;2022-07-06T07:46:09;16.10;99.90
55213;DHT22;41083;52.932;6.674;2022-07-06T07:48:35;16.20;99.90
55213;DHT22;41083;52.932;6.674;2022-07-06T07:51:01;16.20;99.90
55213;DHT22;41083;52.932;6.674;2022-07-06T07:53:26;16.30;99.90
55213;DHT22;41083;52.932;6.674;2022-07-06T07:55:52;16.30;99.90
55213;DHT22;41083;52.932;6.674;2022-07-06T07:58:18;16.40;99.90
55213;DHT22;41083;52.932;6.674;2022-07-06T08:00:44;16.60;99.90
55213;DHT22;41083;52.932;6.674;2022-07-06T08:03:11;16.70;99.20
55213;DHT22;41083;52.932;6.674;2022-07-06T08:05:37;16.80;98.70
55213;DHT22;41083;52.932;6.674;2022-07-06T08:08:03;16.90;98.30
55213;DHT22;41083;52.932;6.674;2022-07-06T08:10:29;16.90;98.40
55213;DHT22;41083;52.932;6.674;2022-07-06T08:12:55;17.00;98.00
55213;DHT22;41083;52.932;6.674;2022-07-06T08:15:20;16.90;97.90
55213;DHT22;41083;52.932;6.674;2022-07-06T08:17:46;16.80;98.10
55213;DHT22;41083;52.932;6.674;2022-07-06T08:20:12;16.70;98.00
55213;DHT22;41083;52.932;6.674;2022-07-06T08:22:38;16.60;97.70
55213;DHT22;41083;52.932;6.674;2022-07-06T08:25:05;16.50;97.80
55213;DHT22;41083;52.932;6.674;2022-07-06T08:27:31;16.40;97.70
55213;DHT22;41083;52.932;6.674;2022-07-06T08:29:57;16.30;97.90
55213;DHT22;41083;52.932;6.674;2022-07-06T08:32:22;16.30;98.00
55213;DHT22;41083;52.932;6.674;2022-07-06T08:34:48;16.30;98.00
55213;DHT22;41083;52.932;6.674;2022-07-06T08:37:14;16.30;98.00
55213;DHT22;41083;52.932;6.674;2022-07-06T08:39:40;16.30;97.10
55213;DHT22;41083;52.932;6.674;2022-07-06T08:42:07;16.40;96.10
55213;DHT22;41083;52.932;6.674;2022-07-06T08:44:36;16.50;96.00
55213;DHT22;41083;52.932;6.674;2022-07-06T08:47:04;16.60;94.40
55213;DHT22;41083;52.932;6.674;2022-07-06T08:49:31;16.60;94.30
55213;DHT22;41083;52.932;6.674;2022-07-06T08:51:57;16.60;94.80
55213;DHT22;41083;52.932;6.674;2022-07-06T08:54:23;16.70;94.60
55213;DHT22;41083;52.932;6.674;2022-07-06T08:56:50;16.70;94.40
55213;DHT22;41083;52.932;6.674;2022-07-06T08:59:16;16.80;94.20
55213;DHT22;41083;52.932;6.674;2022-07-06T09:01:43;16.80;94.00
55213;DHT22;41083;52.932;6.674;2022-07-06T09:04:12;16.90;94.00
55213;DHT22;41083;52.932;6.674;2022-07-06T09:06:42;16.90;93.70
55213;DHT22;41083;52.932;6.674;2022-07-06T09:09:07;17.00;93.60
55213;DHT22;41083;52.932;6.674;2022-07-06T09:11:34;17.00;93.60
55213;DHT22;41083;52.932;6.674;2022-07-06T09:14:01;17.10;93.90
55213;DHT22;41083;52.932;6.674;2022-07-06T09:16:29;17.20;93.90
55213;DHT22;41083;52.932;6.674;2022-07-06T09:18:56;17.30;93.40
55213;DHT22;41083;52.932;6.674;2022-07-06T09:21:28;17.30;93.20
55213;DHT22;41083;52.932;6.674;2022-07-06T09:23:58;17.40;92.90
55213;DHT22;41083;52.932;6.674;2022-07-06T09:26:25;17.50;93.20
55213;DHT22;41083;52.932;6.674;2022-07-06T09:28:51;17.70;92.50
55213;DHT22;41083;52.932;6.674;2022-07-06T09:31:17;17.60;92.40
55213;DHT22;41083;52.932;6.674;2022-07-06T09:34:00;17.70;92.80
55213;DHT22;41083;52.932;6.674;2022-07-06T09:39:28;17.70;90.30
55213;DHT22;41083;52.932;6.674;2022-07-06T09:41:59;17.70;89.60
55213;DHT22;41083;52.932;6.674;2022-07-06T09:44:30;17.80;91.30
55213;DHT22;41083;52.932;6.674;2022-07-06T09:47:01;18.00;91.50
55213;DHT22;41083;52.932;6.674;2022-07-06T09:49:27;18.10;91.10
55213;DHT22;41083;52.932;6.674;2022-07-06T09:51:56;18.20;90.90
55213;DHT22;41083;52.932;6.674;2022-07-06T09:54:21;18.10;90.20
55213;DHT22;41083;52.932;6.674;2022-07-06T09:56:48;18.10;90.80
55213;DHT22;41083;52.932;6.674;2022-07-06T09:59:20;18.10;91.00
55213;DHT22;41083;52.932;6.674;2022-07-06T10:01:47;18.10;91.30
55213;DHT22;41083;52.932;6.674;2022-07-06T10:04:15;18.20;91.10
55213;DHT22;41083;52.932;6.674;2022-07-06T10:06:44;18.20;90.90
55213;DHT22;41083;52.932;6.674;2022-07-06T10:09:11;18.30;90.40
55213;DHT22;41083;52.932;6.674;2022-07-06T10:11:42;18.30;90.50
55213;DHT22;41083;52.932;6.674;2022-07-06T10:14:08;18.20;89.10
55213;DHT22;41083;52.932;6.674;2022-07-06T10:16:38;18.20;90.70
55213;DHT22;41083;52.932;6.674;2022-07-06T10:19:08;18.20;90.40
55213;DHT22;41083;52.932;6.674;2022-07-06T10:21:39;18.10;89.60
55213;DHT22;41083;52.932;6.674;2022-07-06T10:24:06;18.00;89.50
55213;DHT22;41083;52.932;6.674;2022-07-06T10:26:33;18.00;90.40
55213;DHT22;41083;52.932;6.674;2022-07-06T10:29:03;18.00;90.30
55213;DHT22;41083;52.932;6.674;2022-07-06T10:31:30;18.10;90.30
55213;DHT22;41083;52.932;6.674;2022-07-06T10:33:57;18.20;89.50
55213;DHT22;41083;52.932;6.674;2022-07-06T10:36:25;18.20;88.80
55213;DHT22;41083;52.932;6.674;2022-07-06T10:38:51;18.10;88.70
55213;DHT22;41083;52.932;6.674;2022-07-06T10:41:17;18.10;89.00
55213;DHT22;41083;52.932;6.674;2022-07-06T10:43:46;18.20;89.20
55213;DHT22;41083;52.932;6.674;2022-07-06T10:46:13;18.30;89.50
55213;DHT22;41083;52.932;6.674;2022-07-06T10:48:40;18.40;89.40
55213;DHT22;41083;52.932;6.674;2022-07-06T10:51:06;18.40;89.10
55213;DHT22;41083;52.932;6.674;2022-07-06T10:53:34;18.60;88.80
55213;DHT22;41083;52.932;6.674;2022-07-06T10:56:05;18.60;87.70
55213;DHT22;41083;52.932;6.674;2022-07-06T10:58:50;18.50;87.20
55213;DHT22;41083;52.932;6.674;2022-07-06T11:01:18;18.40;82.00
55213;DHT22;41083;52.932;6.674;2022-07-06T11:03:48;18.40;88.40
55213;DHT22;41083;52.932;6.674;2022-07-06T11:08:45;18.50;87.60
55213;DHT22;41083;52.932;6.674;2022-07-06T11:11:16;18.50;88.40
55213;DHT22;41083;52.932;6.674;2022-07-06T11:13:58;18.50;87.30
55213;DHT22;41083;52.932;6.674;2022-07-06T11:16:26;18.50;85.40
55213;DHT22;41083;52.932;6.674;2022-07-06T11:19:12;18.50;87.20
55213;DHT22;41083;52.932;6.674;2022-07-06T11:21:46;18.50;85.40
55213;DHT22;41083;52.932;6.674;2022-07-06T11:24:26;18.60;87.00
55213;DHT22;41083;52.932;6.674;2022-07-06T11:26:53;18.60;88.40
55213;DHT22;41083;52.932;6.674;2022-07-06T11:29:21;18.80;89.10
55213;DHT22;41083;52.932;6.674;2022-07-06T11:31:52;18.80;87.80
55213;DHT22;41083;52.932;6.674;2022-07-06T11:36:57;19.00;87.50
55213;DHT22;41083;52.932;6.674;2022-07-06T11:39:30;19.10;86.10
55213;DHT22;41083;52.932;6.674;2022-07-06T11:41:56;19.10;84.80
55213;DHT22;41083;52.932;6.674;2022-07-06T11:44:22;19.00;85.30
55213;DHT22;41083;52.932;6.674;2022-07-06T11:46:48;18.90;86.00
55213;DHT22;41083;52.932;6.674;2022-07-06T11:49:14;19.00;86.00
55213;DHT22;41083;52.932;6.674;2022-07-06T11:51:41;19.00;85.20
55213;DHT22;41083;52.932;6.674;2022-07-06T11:54:13;19.00;85.40
55213;DHT22;41083;52.932;6.674;2022-07-06T11:56:49;19.10;85.40
55213;DHT22;41083;52.932;6.674;2022-07-06T11:59:16;19.20;82.20
55213;DHT22;41083;52.932;6.674;2022-07-06T12:01:45;19.20;83.80
55213;DHT22;41083;52.932;6.674;2022-07-06T12:04:11;19.30;84.60
55213;DHT22;41083;52.932;6.674;2022-07-06T12:06:36;19.30;83.00
55213;DHT22;41083;52.932;6.674;2022-07-06T12:09:02;19.30;83.00
55213;DHT22;41083;52.932;6.674;2022-07-06T12:11:32;19.20;83.40
55213;DHT22;41083;52.932;6.674;2022-07-06T12:13:59;19.20;83.40
55213;DHT22;41083;52.932;6.674;2022-07-06T12:16:36;19.30;84.30
55213;DHT22;41083;52.932;6.674;2022-07-06T12:19:03;19.20;80.20
55213;DHT22;41083;52.932;6.674;2022-07-06T12:21:29;19.20;84.00
55213;DHT22;41083;52.932;6.674;2022-07-06T12:23:55;19.30;85.20
55213;DHT22;41083;52.932;6.674;2022-07-06T12:26:26;19.30;84.10
55213;DHT22;41083;52.932;6.674;2022-07-06T12:29:05;19.30;82.80
55213;DHT22;41083;52.932;6.674;2022-07-06T12:31:37;19.30;83.30
55213;DHT22;41083;52.932;6.674;2022-07-06T12:34:03;19.40;84.10
55213;DHT22;41083;52.932;6.674;2022-07-06T12:36:30;19.50;83.10
55213;DHT22;41083;52.932;6.674;2022-07-06T12:38:55;19.60;83.00
55213;DHT22;41083;52.932;6.674;2022-07-06T12:41:32;19.70;82.50
55213;DHT22;41083;52.932;6.674;2022-07-06T12:44:06;19.70;80.60
55213;DHT22;41083;52.932;6.674;2022-07-06T12:46:40;19.70;81.70
55213;DHT22;41083;52.932;6.674;2022-07-06T12:49:18;19.80;77.00
55213;DHT22;41083;52.932;6.674;2022-07-06T12:54:30;19.70;76.90
55213;DHT22;41083;52.932;6.674;2022-07-06T12:57:03;19.70;78.30
55213;DHT22;41083;52.932;6.674;2022-07-06T12:59:30;19.80;79.10
55213;DHT22;41083;52.932;6.674;2022-07-06T13:01:56;19.80;78.90
55213;DHT22;41083;52.932;6.674;2022-07-06T13:04:27;19.90;79.60
55213;DHT22;41083;52.932;6.674;2022-07-06T13:06:53;19.90;77.00
55213;DHT22;41083;52.932;6.674;2022-07-06T13:09:19;19.90;78.90
55213;DHT22;41083;52.932;6.674;2022-07-06T13:11:46;19.90;78.80
55213;DHT22;41083;52.932;6.674;2022-07-06T13:14:12;20.00;78.40
55213;DHT22;41083;52.932;6.674;2022-07-06T13:16:38;20.10;78.00
55213;DHT22;41083;52.932;6.674;2022-07-06T13:19:04;20.10;78.10
55213;DHT22;41083;52.932;6.674;2022-07-06T13:21:30;20.20;77.00
55213;DHT22;41083;52.932;6.674;2022-07-06T13:23:55;20.10;76.30
55213;DHT22;41083;52.932;6.674;2022-07-06T13:26:21;20.00;76.90
55213;DHT22;41083;52.932;6.674;2022-07-06T13:28:47;20.00;77.40
55213;DHT22;41083;52.932;6.674;2022-07-06T13:31:12;20.10;77.60
55213;DHT22;41083;52.932;6.674;2022-07-06T13:33:38;19.90;77.90
55213;DHT22;41083;52.932;6.674;2022-07-06T13:36:04;19.80;77.00
55213;DHT22;41083;52.932;6.674;2022-07-06T13:38:29;19.80;77.30
55213;DHT22;41083;52.932;6.674;2022-07-06T13:40:55;19.70;77.10
55213;DHT22;41083;52.932;6.674;2022-07-06T13:43:21;19.70;77.20
55213;DHT22;41083;52.932;6.674;2022-07-06T13:45:47;19.70;78.30
55213;DHT22;41083;52.932;6.674;2022-07-06T13:48:13;19.70;78.90
55213;DHT22;41083;52.932;6.674;2022-07-06T13:50:38;19.70;78.50
55213;DHT22;41083;52.932;6.674;2022-07-06T13:53:04;19.80;76.00
55213;DHT22;41083;52.932;6.674;2022-07-06T13:55:30;19.80;76.80
55213;DHT22;41083;52.932;6.674;2022-07-06T13:57:56;19.80;75.90
55213;DHT22;41083;52.932;6.674;2022-07-06T14:00:22;19.80;75.80
55213;DHT22;41083;52.932;6.674;2022-07-06T14:02:47;19.80;74.90
55213;DHT22;41083;52.932;6.674;2022-07-06T14:05:13;19.70;74.90
55213;DHT22;41083;52.932;6.674;2022-07-06T14:07:39;19.70;74.40
55213;DHT22;41083;52.932;6.674;2022-07-06T14:10:05;19.70;75.00
55213;DHT22;41083;52.932;6.674;2022-07-06T14:12:31;19.60;74.90
55213;DHT22;41083;52.932;6.674;2022-07-06T14:14:57;19.60;75.20
55213;DHT22;41083;52.932;6.674;2022-07-06T14:17:23;19.50;74.70
55213;DHT22;41083;52.932;6.674;2022-07-06T14:19:50;19.50;74.70
55213;DHT22;41083;52.932;6.674;2022-07-06T14:22:16;19.50;75.00
55213;DHT22;41083;52.932;6.674;2022-07-06T14:24:42;19.40;75.20
55213;DHT22;41083;52.932;6.674;2022-07-06T14:27:07;19.30;76.00
55213;DHT22;41083;52.932;6.674;2022-07-06T14:29:33;19.30;76.40
55213;DHT22;41083;52.932;6.674;2022-07-06T14:31:58;19.30;76.40
55213;DHT22;41083;52.932;6.674;2022-07-06T14:34:24;19.30;76.80
55213;DHT22;41083;52.932;6.674;2022-07-06T14:36:50;19.20;77.00
55213;DHT22;41083;52.932;6.674;2022-07-06T14:39:16;19.20;77.00
55213;DHT22;41083;52.932;6.674;2022-07-06T14:41:42;19.20;77.30
55213;DHT22;41083;52.932;6.674;2022-07-06T14:44:07;19.00;77.00
55213;DHT22;41083;52.932;6.674;2022-07-06T14:46:33;19.00;76.90
55213;DHT22;41083;52.932;6.674;2022-07-06T14:49:00;19.00;77.10
55213;DHT22;41083;52.932;6.674;2022-07-06T14:51:26;18.90;77.00
55213;DHT22;41083;52.932;6.674;2022-07-06T14:53:52;18.80;76.50
55213;DHT22;41083;52.932;6.674;2022-07-06T14:56:17;18.80;76.80
55213;DHT22;41083;52.932;6.674;2022-07-06T14:58:43;18.80;77.00
55213;DHT22;41083;52.932;6.674;2022-07-06T15:01:09;18.80;77.00
55213;DHT22;41083;52.932;6.674;2022-07-06T15:03:34;18.80;77.10
55213;DHT22;41083;52.932;6.674;2022-07-06T15:06:00;18.90;77.50
55213;DHT22;41083;52.932;6.674;2022-07-06T15:08:26;18.90;77.80
55213;DHT22;41083;52.932;6.674;2022-07-06T15:10:51;18.90;77.90
55213;DHT22;41083;52.932;6.674;2022-07-06T15:13:17;18.90;78.20
55213;DHT22;41083;52.932;6.674;2022-07-06T15:15:43;18.90;78.60
55213;DHT22;41083;52.932;6.674;2022-07-06T15:18:09;18.80;79.00
55213;DHT22;41083;52.932;6.674;2022-07-06T15:20:34;18.90;78.90
55213;DHT22;41083;52.932;6.674;2022-07-06T15:23:00;18.80;78.80
55213;DHT22;41083;52.932;6.674;2022-07-06T15:25:26;18.80;79.30
55213;DHT22;41083;52.932;6.674;2022-07-06T15:27:52;18.70;79.10
55213;DHT22;41083;52.932;6.674;2022-07-06T15:30:18;18.70;79.10
55213;DHT22;41083;52.932;6.674;2022-07-06T15:32:43;18.60;79.40
55213;DHT22;41083;52.932;6.674;2022-07-06T15:35:09;18.50;80.10
55213;DHT22;41083;52.932;6.674;2022-07-06T15:37:35;18.50;80.70